Terminal Aerodrome Forecast
Issued by NWS

Home | Current Version | Previous Version | Text Only | Print | Product List | Glossary On
Versions: 1 2 3 4 5 6 7 8 9 10 11 12
000
FTUS45 KABQ 062300
TAFFMN
TAF
KFMN 062326Z 0700/0724 VRB04KT P6SM SKC
     FM070800 08007KT P6SM SKC
     FM071800 VRB05KT P6SM FEW090=

USA.gov is the U.S. government's official web portal to all federal, state and local government web resources and services.